Pescara - LIBP

Metar : METAR LIBP 202350Z AUTO 20002KT 9999 SCT170/// SCT250/// 19/18 Q1017=

Taf : TAF LIBP 202300Z 2100/2124 VRB05KT 9999 FEW030 BECMG 2110/2112 04010KT BECMG 2116/2118 VRB05KT=

 Scopri come leggere i bollettini codificati...


Storico

LIBP 202350Z AUTO 20002KT 9999 SCT170/// SCT250/// 19/18 Q1017
LIBP 202250Z AUTO 20005KT 9999 FEW200/// BKN230/// 19/18 Q1017
LIBP 202150Z AUTO 26002KT 9999 BKN230/// 20/19 Q1017
LIBP 202050Z 22003KT CAVOK 20/19 Q1017
LIBP 201950Z 20003KT CAVOK 21/19 Q1018
LIBP 201850Z 25002KT CAVOK 22/19 Q1018
LIBP 201750Z 15003KT CAVOK 24/19 Q1017
LIBP 201650Z 05003KT CAVOK 24/19 Q1017
LIBP 201550Z 05003KT 9999 FEW080 24/18 Q1017
LIBP 201450Z 04006KT 020V080 9999 FEW070 26/17 Q1017
LIBP 201350Z 04006KT 010V080 9999 FEW020 27/18 Q1017
LIBP 201250Z 01006KT 330V060 9999 FEW020 26/18 Q1018
LIBP 201150Z 04006KT 350V070 9999 FEW050 26/19 Q1018
LIBP 201050Z 03003KT 320V080 9999 FEW050 26/19 Q1019
LIBP 200950Z 21004KT 130V260 CAVOK 25/18 Q1019
LIBP 200850Z VRB03KT 9000 SCT050 SCT080 23/19 Q1020
LIBP 200750Z 21004KT 7000 SCT040 BKN070 21/19 Q1020
LIBP 200650Z 21005KT 9000 -RA FEW020 SCT050 20/19 Q1019
LIBP 200550Z 30003KT 210V350 9999 -RA FEW020 SCT050 20/19 Q1019
LIBP 200450Z AUTO 23004KT 9999 -RA FEW042/// OVC057/// 20/19 Q1019
LIBP 200350Z AUTO VRB01KT 9999 -RA BKN049/// 20/20 Q1018
LIBP 200250Z AUTO 23002KT 9000 -RA OVC100/// 20/20 Q1018
LIBP 200150Z AUTO 24003KT 9999 -RA BKN100/// 20/20 Q1018
LIBP 200050Z AUTO 24003KT 9999 OVC100/// 20/20 Q1019
LIBP 192350Z AUTO 21002KT 8000 FEW096/// BKN120/// 20/20 Q1019
LIBP 192250Z AUTO 26002KT 9999 OVC110/// 21/20 Q1019
LIBP 192150Z AUTO 21004KT 9999 OVC085/// 21/20 Q1020
LIBP 192050Z 26003KT 9999 FEW020 SCT060 21/20 Q1020
LIBP 191959Z 22004KT 9000 FEW020 SCT060 21/20 Q1020
LIBP 191950Z 23004KT 9000 FEW020 SCT060 21/21 Q1020
LIBP 191850Z 23004KT 6000 FEW020TCU SCT060 22/21 Q1020
LIBP 191750Z 23004KT 6000 FEW020TCU SCT060 22/21 Q1019 RERA
LIBP 191650Z 24004KT 4000 RA FEW020TCU SCT050 BKN100 22/22 Q1019
LIBP 191617Z 23006KT 7000 RA FEW020TCU SCT050 BKN100 22/21 Q1019
LIBP 191550Z 07002KT 9999 -RA FEW020TCU SCT100 24/21 Q1019
LIBP 191450Z 06006KT 9999 FEW020TCU 25/20 Q1018
LIBP 191350Z 06007KT 9999 FEW020TCU 25/21 Q1018
LIBP 191250Z 06008KT 030V100 9999 FEW020TCU 26/21 Q1019
LIBP 191150Z 04007KT 9999 FEW020 26/21 Q1019
LIBP 191050Z 06006KT 020V100 9999 FEW020 26/20 Q1019
LIBP 190950Z VRB04KT 9999 FEW020 26/21 Q1020
LIBP 190850Z VRB01KT 9999 FEW020 25/20 Q1020
LIBP 190750Z VRB02KT CAVOK 23/19 Q1020
LIBP 190650Z 21004KT CAVOK 20/19 Q1019
LIBP 190550Z 21004KT 9999 FEW020 19/18 Q1019
LIBP 190450Z AUTO 23003KT 9999 BKN024/// 19/18 Q1019
LIBP 190350Z AUTO 20004KT 9999 NCD 18/17 Q1019
LIBP 190250Z AUTO 22003KT 9999 NCD 18/18 Q1019
LIBP 190150Z AUTO 22005KT 9999 NCD 19/18 Q1019
LIBP 190050Z AUTO 23004KT 9999 NCD 20/19 Q1019
LIBP 182350Z AUTO 21005KT 9999 NCD 19/19 Q1019
LIBP 182250Z AUTO 25003KT 9999 NCD 20/19 Q1019
LIBP 182150Z AUTO 23004KT 8000 FEW110/// 21/20 Q1019
LIBP 182050Z 21003KT 9999 FEW020 21/20 Q1019
LIBP 181950Z 23004KT CAVOK 22/21 Q1019
LIBP 181850Z 31003KT 260V350 9999 FEW100 23/21 Q1019
LIBP 181750Z VRB02KT 9999 -RA FEW070 SCT100 24/21 Q1019
LIBP 181650Z 08003KT 9999 SCT070 25/20 Q1019
LIBP 181550Z 07008KT 9999 FEW070 26/21 Q1018
LIBP 181450Z 06009KT CAVOK 27/21 Q1018
LIBP 181350Z 08008KT 040V110 9999 FEW040 27/21 Q1018
LIBP 181250Z 05008KT 020V090 9999 FEW040 27/21 Q1019
LIBP 181150Z 05008KT CAVOK 27/21 Q1019
LIBP 181050Z 07007KT 030V090 CAVOK 26/20 Q1020
LIBP 180950Z 07004KT 040V120 CAVOK 26/20 Q1020
LIBP 180850Z 24003KT 180V290 9999 FEW020 24/19 Q1020
LIBP 180750Z 24003KT 9999 FEW018 22/19 Q1020
LIBP 180650Z 21005KT 9999 FEW015 21/19 Q1020
LIBP 180550Z 19003KT CAVOK 20/19 Q1020
LIBP 180450Z AUTO 20003KT 9999 BKN170/// 19/18 Q1019
LIBP 180350Z AUTO 22004KT 9999 FEW016/// BKN110/// 19/18 Q1019
LIBP 180250Z AUTO 22003KT 9999 BKN120/// BKN140/// 19/18 Q1019
LIBP 180150Z AUTO 22003KT 9999 OVC110/// 19/18 Q1019
LIBP 180050Z AUTO 21004KT 9999 BKN150/// 19/18 Q1020
LIBP 172350Z AUTO 23003KT 8000 BKN150/// 19/19 Q1019
LIBP 172250Z AUTO 20003KT 8000 NCD 19/19 Q1019
LIBP 172150Z AUTO 22003KT 9000 FEW130/// 20/19 Q1020
LIBP 172050Z 23003KT 140V280 CAVOK 21/20 Q1020
LIBP 171950Z 22004KT 140V250 9999 RA SCT080 20/20 Q1020
LIBP 171850Z 23005KT 9999 -RA SCT090 21/19 Q1021
LIBP 171750Z VRB02KT 9999 -RA VCTS FEW040CB SCT090 24/19 Q1020
LIBP 171714Z 30004KT 9999 TS FEW020 SCT040CB BKN090 24/19 Q1020
LIBP 171650Z 36004KT 9999 VCTS SCT050CB BKN085 25/20 Q1020
LIBP 171550Z 06007KT 030V090 9999 SCT080 26/20 Q1019
LIBP 171450Z 08009KT 9999 FEW080 27/21 Q1019
LIBP 171350Z 07009KT CAVOK 27/20 Q1019
LIBP 171250Z 05010KT 030V090 CAVOK 28/21 Q1020
LIBP 171150Z 07010KT CAVOK 27/21 Q1020
LIBP 171050Z 06008KT 030V090 CAVOK 27/20 Q1021
LIBP 170950Z 05007KT 020V080 CAVOK 28/20 Q1021
LIBP 170850Z VRB03KT CAVOK 26/19 Q1021
LIBP 170750Z 22004KT 190V290 CAVOK 25/18 Q1021
LIBP 170650Z 20004KT CAVOK 23/19 Q1021

Informazioni elaborate utilizzando, tra l’altro, dati e prodotti del Servizio Meteorologico dell’Aeronautica Militare pubblicati sul sito www.meteoam.it e della National Oceanic and Atmospheric Administration (NOAA)

Ultimi caricamenti...


MM81911 (11-12) Guardia Costiera AgustaWestland AW139

 


MM81661 (PS-106) Polizia di Stato AgustaBell AB-212

 


MM62170 (10-01) Guardia Costiera ATR 42

Questo sito non utilizza cookie di profilazione. Il sito utilizza cookie tecnici, di analisi anonima di prima parte e di terze parti per servizi di social network.